Time;durP1;ratioP1;P1;durP2;ratioP2;P2;SDS_P1;SDS_P2;PMS_P1;PMS_P2;Temp;Humidity;BMP_temperature;BMP_pressure;BME280_temperature;BME280_humidity;BME280_pressure;Samples;Min_cycle;Max_cycle;Signal;HPM_P1;HPM_P2
2021/11/24 00:02:06;;;;;;;44.40;23.73;;;6.40;99.90;;;;;;5019956;28;20241;-66
2021/11/24 00:04:34;;;;;;;44.60;23.60;;;6.40;99.90;;;;;;5020903;28;20241;-66
2021/11/24 00:07:01;;;;;;;44.60;23.77;;;6.40;99.90;;;;;;5026915;28;20294;-67
2021/11/24 00:09:28;;;;;;;42.47;23.17;;;6.40;99.90;;;;;;5015761;28;20195;-66
2021/11/24 00:11:55;;;;;;;40.17;22.53;;;6.30;99.90;;;;;;5026132;28;20293;-66
2021/11/24 00:14:22;;;;;;;47.33;25.83;;;6.40;99.90;;;;;;5020601;28;20272;-66
2021/11/24 00:16:49;;;;;;;41.73;23.57;;;6.40;99.90;;;;;;5027575;28;21483;-67
2021/11/24 00:19:16;;;;;;;43.97;25.07;;;6.40;99.90;;;;;;5014394;28;20246;-66
2021/11/24 00:21:44;;;;;;;44.63;23.70;;;6.40;99.90;;;;;;5019146;28;20207;-67
2021/11/24 00:24:11;;;;;;;43.03;24.23;;;6.40;99.90;;;;;;5025796;28;20764;-66
2021/11/24 00:26:38;;;;;;;40.87;23.43;;;6.50;99.90;;;;;;5014512;28;20234;-66
2021/11/24 00:29:05;;;;;;;42.07;23.67;;;6.50;99.90;;;;;;5026983;28;20467;-65
2021/11/24 00:31:32;;;;;;;42.70;23.53;;;6.40;99.90;;;;;;5027228;28;20305;-65
2021/11/24 00:34:00;;;;;;;45.10;23.63;;;6.50;99.90;;;;;;5028558;28;20694;-66
2021/11/24 00:36:27;;;;;;;38.97;22.93;;;6.50;99.90;;;;;;5015480;28;20742;-66
2021/11/24 00:38:56;;;;;;;39.60;22.67;;;6.50;99.90;;;;;;5025452;28;20651;-67
2021/11/24 00:41:23;;;;;;;39.13;23.67;;;6.50;99.90;;;;;;5028284;28;20587;-66
2021/11/24 00:43:50;;;;;;;43.30;24.77;;;6.50;99.90;;;;;;5019005;28;20897;-68
2021/11/24 00:46:17;;;;;;;39.13;22.57;;;6.50;99.90;;;;;;5020698;28;20298;-68
2021/11/24 00:48:44;;;;;;;43.00;23.37;;;6.50;99.90;;;;;;5011700;28;20291;-67
2021/11/24 00:51:10;;;;;;;45.40;24.93;;;6.50;99.90;;;;;;5011486;28;20234;-67
2021/11/24 00:53:37;;;;;;;39.37;23.43;;;6.50;99.90;;;;;;5024591;28;20290;-65
2021/11/24 00:56:06;;;;;;;39.50;23.13;;;6.50;99.90;;;;;;5029042;28;20261;-66
2021/11/24 00:58:33;;;;;;;39.03;22.57;;;6.40;99.90;;;;;;5028842;28;20250;-66
2021/11/24 01:01:00;;;;;;;40.10;22.83;;;6.50;99.90;;;;;;5013452;28;20301;-66
2021/11/24 01:03:27;;;;;;;42.63;24.13;;;6.50;99.90;;;;;;5024609;28;20245;-66
2021/11/24 01:05:54;;;;;;;38.43;23.33;;;6.40;99.90;;;;;;5011062;28;20226;-66
2021/11/24 01:08:22;;;;;;;40.43;23.03;;;6.50;99.90;;;;;;5028599;28;20298;-67
2021/11/24 01:10:49;;;;;;;37.40;22.13;;;6.50;99.90;;;;;;5011814;28;20695;-67
2021/11/24 01:13:19;;;;;;;37.77;22.57;;;6.50;99.90;;;;;;5023467;28;20729;-66
2021/11/24 01:15:46;;;;;;;39.63;23.63;;;6.50;99.90;;;;;;5016859;28;20608;-67
2021/11/24 01:18:13;;;;;;;40.37;21.73;;;6.40;99.90;;;;;;5025139;28;20297;-66
2021/11/24 01:20:41;;;;;;;39.43;21.63;;;6.40;99.90;;;;;;5012424;28;20239;-66
2021/11/24 01:23:08;;;;;;;39.60;21.87;;;6.30;99.90;;;;;;5011502;28;20246;-66
2021/11/24 01:25:35;;;;;;;38.23;21.43;;;6.40;99.90;;;;;;5013376;28;20279;-65
2021/11/24 01:28:02;;;;;;;34.63;21.53;;;6.30;99.90;;;;;;5028808;28;20301;-66
2021/11/24 01:30:30;;;;;;;37.77;21.63;;;6.30;99.90;;;;;;5025340;28;20326;-65
2021/11/24 01:32:57;;;;;;;37.27;20.43;;;6.30;99.90;;;;;;5014037;28;20742;-66
2021/11/24 01:35:24;;;;;;;32.77;20.30;;;6.40;99.90;;;;;;5023956;28;20238;-66
2021/11/24 01:37:52;;;;;;;33.93;19.97;;;6.40;99.90;;;;;;5015936;28;20771;-66
2021/11/24 01:40:18;;;;;;;33.13;19.93;;;6.30;99.90;;;;;;5017926;28;20228;-66
2021/11/24 01:42:46;;;;;;;37.10;21.30;;;6.30;99.90;;;;;;5024735;28;20608;-66
2021/11/24 01:45:18;;;;;;;30.77;19.90;;;6.30;99.90;;;;;;5020678;28;20234;-66
2021/11/24 01:47:48;;;;;;;33.10;19.27;;;6.40;99.90;;;;;;5016300;28;20289;-66
2021/11/24 01:50:16;;;;;;;38.43;21.43;;;6.40;99.90;;;;;;5028188;28;20678;-67
2021/11/24 01:52:43;;;;;;;36.00;19.93;;;6.30;99.90;;;;;;5017952;28;20254;-66
2021/11/24 01:55:11;;;;;;;40.47;20.90;;;6.40;99.90;;;;;;5023676;28;20278;-65
2021/11/24 01:57:41;;;;;;;33.80;19.37;;;6.40;99.90;;;;;;5023729;28;20309;-66
2021/11/24 02:00:09;;;;;;;34.23;19.50;;;6.30;99.90;;;;;;5017142;28;20721;-66
2021/11/24 02:02:36;;;;;;;32.87;19.70;;;6.30;99.90;;;;;;5019949;28;20703;-65
2021/11/24 02:05:05;;;;;;;31.77;18.73;;;6.20;99.90;;;;;;5016067;28;20293;-65
2021/11/24 02:07:32;;;;;;;35.97;19.23;;;6.30;99.90;;;;;;5026753;28;20294;-66
2021/11/24 02:09:59;;;;;;;33.13;19.13;;;6.20;99.90;;;;;;5022206;28;20297;-66
2021/11/24 02:12:26;;;;;;;37.23;20.07;;;6.20;99.90;;;;;;5020333;28;20329;-66
2021/11/24 02:14:53;;;;;;;34.57;19.30;;;6.20;99.90;;;;;;5017075;28;20218;-66
2021/11/24 02:17:20;;;;;;;32.07;17.43;;;6.20;99.90;;;;;;5015235;28;20310;-66
2021/11/24 02:19:47;;;;;;;33.93;17.87;;;6.20;99.90;;;;;;5018642;28;20302;-66
2021/11/24 02:22:15;;;;;;;28.73;16.80;;;6.20;99.90;;;;;;5012596;28;20195;-66
2021/11/24 02:24:44;;;;;;;32.00;16.27;;;6.20;99.90;;;;;;5019749;28;20294;-66
2021/11/24 02:27:13;;;;;;;29.57;16.23;;;6.30;99.90;;;;;;5015063;28;20239;-65
2021/11/24 02:29:41;;;;;;;26.00;16.67;;;6.30;99.90;;;;;;5019610;28;20215;-65
2021/11/24 02:32:09;;;;;;;28.77;16.57;;;6.30;99.90;;;;;;5017695;28;20302;-66
2021/11/24 02:34:36;;;;;;;26.60;16.30;;;6.30;99.90;;;;;;5022728;28;20653;-66
2021/11/24 02:37:04;;;;;;;25.70;15.33;;;6.20;99.90;;;;;;5020192;28;20304;-66
2021/11/24 02:39:32;;;;;;;26.00;16.00;;;6.20;99.90;;;;;;5027122;28;20728;-66
2021/11/24 02:41:59;;;;;;;28.10;16.27;;;6.20;99.90;;;;;;5029541;28;20230;-66
2021/11/24 02:44:29;;;;;;;28.67;15.73;;;6.20;99.90;;;;;;5011921;28;20678;-67
2021/11/24 02:47:08;;;;;;;30.47;17.40;;;6.20;99.90;;;;;;5016752;28;20206;-67
2021/11/24 02:49:36;;;;;;;27.83;16.83;;;6.20;99.90;;;;;;5028264;28;20294;-65
2021/11/24 02:52:03;;;;;;;29.73;17.73;;;6.20;99.90;;;;;;5012815;28;20664;-67
2021/11/24 02:54:32;;;;;;;25.57;16.27;;;6.20;99.90;;;;;;5013645;28;20700;-67
2021/11/24 02:57:00;;;;;;;26.40;16.60;;;6.10;99.90;;;;;;5027496;28;20317;-66
2021/11/24 02:59:27;;;;;;;26.30;16.00;;;6.10;99.90;;;;;;5022641;28;20215;-67
2021/11/24 03:01:54;;;;;;;27.50;16.37;;;6.10;99.90;;;;;;5013087;28;20281;-66
2021/11/24 03:04:26;;;;;;;29.80;16.27;;;6.10;99.90;;;;;;5023471;28;20220;-67
2021/11/24 03:06:53;;;;;;;30.17;17.20;;;6.10;99.90;;;;;;5017699;28;20891;-66
2021/11/24 03:09:20;;;;;;;30.03;16.90;;;6.10;99.90;;;;;;5022399;28;20619;-66
2021/11/24 03:11:48;;;;;;;28.37;16.73;;;6.10;99.90;;;;;;5019088;28;20242;-66
2021/11/24 03:14:15;;;;;;;27.83;16.13;;;6.10;99.90;;;;;;5025914;28;20300;-65
2021/11/24 03:16:42;;;;;;;26.20;16.47;;;6.20;99.90;;;;;;5021629;28;20670;-65
2021/11/24 03:19:09;;;;;;;28.47;17.30;;;6.20;99.90;;;;;;5032595;28;20731;-65
2021/11/24 03:21:36;;;;;;;25.33;15.37;;;6.10;99.90;;;;;;5021121;28;20784;-67
2021/11/24 03:24:03;;;;;;;30.63;17.07;;;6.10;99.90;;;;;;5013687;28;20262;-66
2021/11/24 03:26:31;;;;;;;29.90;16.53;;;6.10;99.90;;;;;;5014060;28;20249;-67
2021/11/24 03:28:59;;;;;;;28.93;15.20;;;6.10;99.90;;;;;;5027818;28;20298;-66
2021/11/24 03:31:26;;;;;;;27.63;16.00;;;6.10;99.90;;;;;;5018103;28;20293;-66
2021/11/24 03:33:56;;;;;;;30.27;15.77;;;6.10;99.90;;;;;;5012481;28;20665;-66
2021/11/24 03:36:24;;;;;;;24.73;14.57;;;6.00;99.90;;;;;;5017240;28;20660;-67
2021/11/24 03:38:50;;;;;;;23.67;14.50;;;6.10;99.90;;;;;;5012506;28;20307;-67
2021/11/24 03:41:17;;;;;;;27.70;15.80;;;6.10;99.90;;;;;;5018626;28;20719;-66
2021/11/24 03:43:44;;;;;;;24.87;14.83;;;6.10;99.90;;;;;;5025636;28;20590;-66
2021/11/24 03:46:12;;;;;;;29.27;16.70;;;6.10;99.90;;;;;;5016052;28;20198;-65
2021/11/24 03:48:39;;;;;;;25.83;15.40;;;6.10;99.90;;;;;;5022800;28;20302;-66
2021/11/24 03:51:06;;;;;;;26.53;14.97;;;6.10;99.90;;;;;;5032734;28;20825;-65
2021/11/24 03:53:36;;;;;;;28.67;15.70;;;6.10;99.90;;;;;;5025746;28;20211;-66
2021/11/24 03:56:02;;;;;;;25.30;15.50;;;6.10;99.90;;;;;;5022697;28;20230;-67
2021/11/24 03:58:29;;;;;;;27.73;16.17;;;6.10;99.90;;;;;;5026385;28;20243;-67
2021/11/24 04:00:56;;;;;;;32.63;17.33;;;6.10;99.90;;;;;;5012865;28;20295;-66
2021/11/24 04:03:25;;;;;;;30.10;16.97;;;6.10;99.90;;;;;;5013783;28;20602;-66
2021/11/24 04:05:53;;;;;;;26.13;16.00;;;6.10;99.90;;;;;;5019892;28;20740;-66
2021/11/24 04:08:20;;;;;;;31.53;17.17;;;6.10;99.90;;;;;;5016668;28;20231;-66
2021/11/24 04:10:47;;;;;;;29.83;16.40;;;6.20;99.90;;;;;;5024396;28;20211;-65
2021/11/24 04:13:14;;;;;;;29.67;17.10;;;6.10;99.90;;;;;;5024704;28;20293;-65
2021/11/24 04:15:41;;;;;;;31.17;15.93;;;6.20;99.90;;;;;;5021852;28;20303;-65
2021/11/24 04:18:08;;;;;;;27.87;16.07;;;6.20;99.90;;;;;;5018152;28;20627;-66
2021/11/24 04:20:37;;;;;;;31.70;16.50;;;6.20;99.90;;;;;;5029281;28;20222;-66
2021/11/24 04:23:04;;;;;;;26.73;15.60;;;6.10;99.90;;;;;;5022148;28;20243;-66
2021/11/24 04:25:31;;;;;;;26.73;14.53;;;6.20;99.90;;;;;;5014932;28;20207;-66
2021/11/24 04:27:57;;;;;;;27.70;15.47;;;6.20;99.90;;;;;;5021351;28;20778;-67
2021/11/24 04:30:25;;;;;;;27.83;15.13;;;6.20;99.90;;;;;;5017484;28;20235;-65
2021/11/24 04:32:52;;;;;;;31.17;15.47;;;6.20;99.90;;;;;;5021625;28;20211;-66
2021/11/24 04:35:19;;;;;;;27.77;16.33;;;6.20;99.90;;;;;;5022746;28;20658;-66
2021/11/24 04:37:48;;;;;;;28.70;16.03;;;6.20;99.90;;;;;;5029961;28;20210;-67
2021/11/24 04:40:15;;;;;;;32.97;16.30;;;6.20;99.90;;;;;;5031245;28;20214;-66
2021/11/24 04:42:42;;;;;;;30.90;16.03;;;6.20;99.90;;;;;;5014070;28;20740;-65
2021/11/24 04:45:10;;;;;;;27.10;15.30;;;6.30;99.90;;;;;;5011704;28;20211;-66
2021/11/24 04:47:37;;;;;;;30.60;17.00;;;6.20;99.90;;;;;;5012603;28;20239;-67
2021/11/24 04:50:05;;;;;;;27.23;15.30;;;6.20;99.90;;;;;;5015722;28;20203;-67
2021/11/24 04:52:32;;;;;;;26.10;14.93;;;6.20;99.90;;;;;;5021018;28;20614;-66
2021/11/24 04:55:00;;;;;;;26.90;15.67;;;6.20;99.90;;;;;;5019309;28;20294;-66
2021/11/24 04:57:27;;;;;;;27.10;15.53;;;6.20;99.90;;;;;;5021589;28;20326;-66
2021/11/24 04:59:54;;;;;;;30.20;15.40;;;6.20;99.90;;;;;;5017223;28;20311;-66
2021/11/24 05:02:21;;;;;;;28.43;15.47;;;6.20;99.90;;;;;;5022745;28;20680;-66
2021/11/24 05:04:48;;;;;;;26.47;14.47;;;6.20;99.90;;;;;;5017071;28;20714;-67
2021/11/24 05:07:15;;;;;;;28.07;15.33;;;6.20;99.90;;;;;;5024567;28;20687;-66
2021/11/24 05:09:42;;;;;;;26.10;14.67;;;6.20;99.90;;;;;;5030698;28;20210;-66
2021/11/24 05:12:11;;;;;;;25.53;14.87;;;6.20;99.90;;;;;;5016763;28;20230;-65
2021/11/24 05:14:38;;;;;;;28.17;14.87;;;6.20;99.90;;;;;;5024339;28;20721;-65
2021/11/24 05:17:08;;;;;;;25.97;14.70;;;6.20;99.90;;;;;;5020199;28;20217;-67
2021/11/24 05:19:38;;;;;;;26.40;14.73;;;6.20;99.90;;;;;;5020587;28;20628;-66
2021/11/24 05:22:05;;;;;;;27.43;14.03;;;6.20;99.90;;;;;;5012026;28;20309;-67
2021/11/24 05:24:32;;;;;;;27.60;14.57;;;6.20;99.90;;;;;;5015132;28;20211;-66
2021/11/24 05:26:59;;;;;;;29.33;16.43;;;6.20;99.90;;;;;;5024686;28;20297;-67
2021/11/24 05:29:27;;;;;;;24.70;15.23;;;6.20;99.90;;;;;;5028034;28;20840;-67
2021/11/24 05:31:54;;;;;;;25.20;15.03;;;6.20;99.90;;;;;;5015369;28;20246;-67
2021/11/24 05:34:21;;;;;;;24.73;13.97;;;6.20;99.90;;;;;;5020431;28;20294;-66
2021/11/24 05:36:48;;;;;;;24.10;13.97;;;6.20;99.90;;;;;;5030258;28;20298;-66
2021/11/24 05:39:15;;;;;;;25.80;14.77;;;6.20;99.90;;;;;;5028354;28;20342;-66
2021/11/24 05:41:42;;;;;;;24.73;15.17;;;6.20;99.90;;;;;;5011768;28;20233;-67
2021/11/24 05:44:18;;;;;;;25.20;14.57;;;6.20;99.90;;;;;;5011127;28;20247;-66
2021/11/24 05:46:50;;;;;;;24.20;14.07;;;6.20;99.90;;;;;;5010078;28;20207;-67
2021/11/24 05:49:18;;;;;;;25.20;13.80;;;6.20;99.90;;;;;;5026208;28;20206;-66
2021/11/24 05:51:45;;;;;;;22.43;14.13;;;6.20;99.90;;;;;;5025859;28;20675;-67
2021/11/24 05:54:12;;;;;;;23.47;14.30;;;6.20;99.90;;;;;;5018985;28;20618;-67
2021/11/24 05:56:39;;;;;;;23.00;14.60;;;6.20;99.90;;;;;;5023906;28;20265;-66
2021/11/24 05:59:07;;;;;;;23.50;14.57;;;6.20;99.90;;;;;;5023549;28;20627;-66
2021/11/24 06:01:34;;;;;;;24.60;13.87;;;6.20;99.90;;;;;;5019953;28;20312;-67
2021/11/24 06:04:03;;;;;;;23.40;14.80;;;6.20;99.90;;;;;;5023342;28;20740;-67
2021/11/24 06:06:30;;;;;;;21.60;13.40;;;6.20;99.90;;;;;;5010043;28;20301;-66
2021/11/24 06:08:57;;;;;;;23.80;13.83;;;6.20;99.90;;;;;;5026956;28;20229;-66
2021/11/24 06:11:25;;;;;;;21.50;12.97;;;6.30;99.90;;;;;;5018019;28;20272;-67
2021/11/24 06:13:52;;;;;;;21.73;13.80;;;6.20;99.90;;;;;;5012793;28;20333;-67
2021/11/24 06:16:20;;;;;;;23.57;13.90;;;6.20;99.90;;;;;;5024005;28;20290;-66
2021/11/24 06:18:47;;;;;;;23.27;14.00;;;6.20;99.90;;;;;;5015652;28;20211;-66
2021/11/24 06:21:17;;;;;;;24.00;13.70;;;6.20;99.90;;;;;;5021004;28;20257;-65
2021/11/24 06:23:45;;;;;;;21.83;13.47;;;6.20;99.90;;;;;;5010891;28;20242;-67
2021/11/24 06:26:12;;;;;;;22.37;13.90;;;6.30;99.90;;;;;;5032296;28;20252;-67
2021/11/24 06:28:39;;;;;;;24.50;13.90;;;6.20;99.90;;;;;;5036206;28;20228;-66
2021/11/24 06:31:06;;;;;;;21.43;13.63;;;6.20;99.90;;;;;;5024024;28;20227;-69
2021/11/24 06:33:33;;;;;;;22.83;14.27;;;6.20;99.90;;;;;;5022905;28;20215;-70
2021/11/24 06:36:00;;;;;;;22.60;13.20;;;6.20;99.90;;;;;;5030683;28;20703;-69
2021/11/24 06:38:28;;;;;;;20.07;12.70;;;6.20;99.90;;;;;;5018354;28;20210;-70
2021/11/24 06:40:55;;;;;;;22.90;14.07;;;6.20;99.90;;;;;;5018551;28;20782;-70
2021/11/24 06:43:22;;;;;;;20.63;12.93;;;6.20;99.90;;;;;;5021850;28;20290;-71
2021/11/24 06:45:49;;;;;;;20.37;12.83;;;6.20;99.90;;;;;;5018528;28;20234;-71
2021/11/24 06:48:16;;;;;;;18.63;12.00;;;6.20;99.90;;;;;;5025846;28;20203;-73
2021/11/24 06:50:43;;;;;;;23.90;12.90;;;6.20;99.90;;;;;;5031994;28;20718;-71
2021/11/24 06:53:10;;;;;;;21.03;13.13;;;6.20;99.90;;;;;;5029572;28;20487;-71
2021/11/24 06:55:39;;;;;;;20.33;13.87;;;6.20;99.90;;;;;;5026734;28;20652;-72
2021/11/24 06:58:06;;;;;;;20.23;12.93;;;6.20;99.90;;;;;;5018935;28;20261;-69
2021/11/24 07:00:33;;;;;;;23.13;14.00;;;6.10;99.90;;;;;;5019694;28;20237;-70
2021/11/24 07:02:59;;;;;;;24.13;14.47;;;6.20;99.90;;;;;;5028469;28;20257;-70
2021/11/24 07:05:28;;;;;;;22.57;13.70;;;6.20;99.90;;;;;;5027165;28;20629;-70
2021/11/24 07:07:55;;;;;;;19.90;13.03;;;6.10;99.90;;;;;;5035654;28;20218;-71
2021/11/24 07:10:22;;;;;;;20.93;13.33;;;6.20;99.90;;;;;;5032414;28;20237;-70
2021/11/24 07:12:50;;;;;;;21.70;13.23;;;6.10;99.90;;;;;;5027323;28;20279;-69
2021/11/24 07:15:17;;;;;;;22.63;13.87;;;6.20;99.90;;;;;;5017373;28;20317;-68
2021/11/24 07:17:44;;;;;;;22.57;13.67;;;6.20;99.90;;;;;;5017244;28;20293;-69
2021/11/24 07:20:11;;;;;;;21.37;13.60;;;6.20;99.90;;;;;;5020134;28;20256;-68
2021/11/24 07:22:38;;;;;;;22.10;13.20;;;6.20;99.90;;;;;;5016937;28;20306;-69
2021/11/24 07:25:06;;;;;;;20.70;13.03;;;6.20;99.90;;;;;;5017118;28;20239;-69
2021/11/24 07:27:33;;;;;;;19.93;13.13;;;6.20;99.90;;;;;;5018386;28;20247;-70
2021/11/24 07:30:01;;;;;;;20.50;13.33;;;6.20;99.90;;;;;;5018710;28;20207;-70
2021/11/24 07:32:28;;;;;;;21.00;12.70;;;6.20;99.90;;;;;;5027568;28;20230;-70
2021/11/24 07:34:55;;;;;;;18.73;12.33;;;6.20;99.90;;;;;;5026396;28;20575;-68
2021/11/24 07:37:22;;;;;;;21.00;12.73;;;6.20;99.90;;;;;;5013919;28;20303;-69
2021/11/24 07:39:49;;;;;;;20.37;13.00;;;6.30;99.90;;;;;;5015295;28;20628;-68
2021/11/24 07:42:16;;;;;;;22.20;12.77;;;6.30;99.90;;;;;;5015699;28;20223;-68
2021/11/24 07:44:43;;;;;;;20.00;13.00;;;6.30;99.90;;;;;;5028940;28;20242;-68
2021/11/24 07:47:12;;;;;;;22.10;13.17;;;6.30;99.90;;;;;;5028219;28;20719;-68
2021/11/24 07:49:39;;;;;;;22.23;14.13;;;6.40;99.90;;;;;;5022707;28;20287;-68
2021/11/24 07:52:07;;;;;;;21.50;13.57;;;6.40;99.90;;;;;;5035914;28;20334;-68
2021/11/24 07:54:34;;;;;;;21.93;12.87;;;6.40;99.90;;;;;;5033701;28;20245;-68
2021/11/24 07:57:01;;;;;;;18.43;12.43;;;6.40;99.90;;;;;;5025183;28;20662;-68
2021/11/24 07:59:28;;;;;;;21.90;13.03;;;6.40;99.90;;;;;;5018464;28;20239;-64
2021/11/24 08:01:54;;;;;;;21.83;13.63;;;6.40;99.90;;;;;;5021311;28;20226;-66
2021/11/24 08:04:23;;;;;;;21.07;12.67;;;6.40;99.90;;;;;;5032198;28;20234;-67
2021/11/24 08:06:50;;;;;;;19.63;12.40;;;6.40;99.90;;;;;;5027305;28;20241;-67
2021/11/24 08:09:17;;;;;;;21.23;13.30;;;6.50;99.90;;;;;;5015920;28;20234;-66
2021/11/24 08:11:44;;;;;;;22.80;12.87;;;6.50;99.90;;;;;;5024513;28;20261;-65
2021/11/24 08:14:11;;;;;;;18.23;12.37;;;6.50;99.90;;;;;;5021789;28;20322;-67
2021/11/24 08:16:37;;;;;;;20.80;12.83;;;6.50;99.90;;;;;;5012548;28;20246;-69
2021/11/24 08:19:04;;;;;;;20.17;13.00;;;6.50;99.90;;;;;;5014551;28;20227;-68
2021/11/24 08:21:33;;;;;;;21.10;14.07;;;6.50;99.90;;;;;;5017660;28;20649;-67
2021/11/24 08:24:00;;;;;;;22.87;13.70;;;6.50;99.90;;;;;;5031901;28;20234;-66
2021/11/24 08:26:27;;;;;;;21.27;13.40;;;6.50;99.90;;;;;;5032556;28;20294;-67
2021/11/24 08:28:54;;;;;;;19.27;12.80;;;6.50;99.90;;;;;;5014793;28;20297;-67
2021/11/24 08:31:22;;;;;;;20.07;12.30;;;6.50;99.90;;;;;;5018189;28;20727;-67
2021/11/24 08:33:49;;;;;;;22.40;13.00;;;6.50;99.90;;;;;;5014376;28;20218;-67
2021/11/24 08:36:16;;;;;;;21.27;13.90;;;6.50;99.90;;;;;;5026779;28;20230;-67
2021/11/24 08:38:45;;;;;;;20.10;13.27;;;6.60;99.90;;;;;;5025668;28;20417;-66
2021/11/24 08:41:15;;;;;;;20.93;12.67;;;6.60;99.90;;;;;;5028052;28;20267;-66
2021/11/24 08:43:42;;;;;;;18.93;11.87;;;6.60;99.90;;;;;;5027423;28;20308;-67
2021/11/24 08:46:09;;;;;;;20.47;13.07;;;6.60;99.90;;;;;;5018782;28;20238;-68
2021/11/24 08:48:36;;;;;;;20.07;12.60;;;6.60;99.90;;;;;;5013820;28;20638;-68
2021/11/24 08:51:04;;;;;;;19.83;12.07;;;6.70;99.90;;;;;;5029281;28;20264;-69
2021/11/24 08:53:31;;;;;;;20.60;12.17;;;6.70;99.90;;;;;;5033076;28;20198;-69
2021/11/24 08:56:00;;;;;;;16.93;12.37;;;6.70;99.90;;;;;;5032049;28;20319;-68
2021/11/24 08:58:27;;;;;;;17.60;11.70;;;6.70;99.90;;;;;;5017578;28;20294;-68
2021/11/24 09:00:54;;;;;;;18.03;11.93;;;6.70;99.90;;;;;;5017593;28;20843;-67
2021/11/24 09:03:21;;;;;;;15.70;11.43;;;6.70;99.90;;;;;;5013894;28;20600;-67
2021/11/24 09:05:49;;;;;;;19.50;12.07;;;6.70;99.90;;;;;;5020287;28;20818;-67
2021/11/24 09:08:17;;;;;;;18.33;12.50;;;6.70;99.90;;;;;;5025874;28;20286;-66
2021/11/24 09:10:44;;;;;;;18.73;12.63;;;6.60;99.90;;;;;;5016841;28;20215;-66
2021/11/24 09:13:12;;;;;;;17.40;12.07;;;6.60;99.90;;;;;;5012372;28;20269;-67
2021/11/24 09:15:41;;;;;;;19.70;12.67;;;6.60;99.90;;;;;;5014982;28;20226;-68
2021/11/24 09:18:08;;;;;;;19.53;13.03;;;6.60;99.90;;;;;;5011788;28;20242;-67
2021/11/24 09:20:35;;;;;;;20.30;12.27;;;6.60;99.90;;;;;;5022021;28;20203;-66
2021/11/24 09:23:03;;;;;;;20.43;13.50;;;6.60;99.90;;;;;;5014511;28;20238;-67
2021/11/24 09:25:37;;;;;;;23.77;13.13;;;6.60;99.90;;;;;;5010950;28;20683;-67
2021/11/24 09:28:10;;;;;;;18.47;12.50;;;6.70;99.90;;;;;;5024598;28;20226;-67
2021/11/24 09:30:39;;;;;;;19.50;11.57;;;6.70;99.90;;;;;;5013171;28;20253;-67
2021/11/24 09:33:06;;;;;;;19.30;12.53;;;6.70;99.90;;;;;;5015767;28;20212;-68
2021/11/24 09:35:33;;;;;;;18.77;12.87;;;6.70;99.90;;;;;;5016471;28;20314;-67
2021/11/24 09:38:01;;;;;;;20.23;13.40;;;6.70;99.90;;;;;;5014487;28;20509;-68
2021/11/24 09:40:29;;;;;;;18.40;12.40;;;6.70;99.90;;;;;;5015290;28;20203;-68
2021/11/24 09:43:01;;;;;;;20.67;13.93;;;6.80;99.90;;;;;;5017746;28;20796;-69
2021/11/24 09:45:29;;;;;;;19.23;12.53;;;6.80;99.90;;;;;;5014232;28;20305;-68
2021/11/24 09:48:00;;;;;;;22.30;12.33;;;6.80;99.90;;;;;;5013842;28;20673;-68
2021/11/24 09:50:29;;;;;;;21.53;12.83;;;6.90;99.90;;;;;;5018796;28;20545;-68
2021/11/24 09:52:57;;;;;;;17.40;11.60;;;6.90;99.90;;;;;;5023708;28;20305;-67
2021/11/24 09:55:25;;;;;;;19.77;11.97;;;6.90;99.90;;;;;;5015752;28;20562;-68
2021/11/24 09:57:54;;;;;;;19.40;12.93;;;6.90;99.90;;;;;;5021523;28;20306;-67
2021/11/24 10:00:22;;;;;;;19.20;12.23;;;6.90;99.90;;;;;;5012088;28;20282;-69
2021/11/24 10:02:49;;;;;;;17.83;12.00;;;6.90;99.90;;;;;;5028426;28;20265;-68
2021/11/24 10:05:19;;;;;;;17.60;11.80;;;6.90;99.90;;;;;;5012958;28;20294;-67
2021/11/24 10:07:46;;;;;;;19.60;12.73;;;6.90;99.90;;;;;;5024018;28;20218;-68
2021/11/24 10:10:13;;;;;;;22.60;12.97;;;6.90;99.90;;;;;;5029405;28;20209;-68
2021/11/24 10:12:40;;;;;;;18.93;12.70;;;6.90;99.90;;;;;;5021817;28;20325;-67
2021/11/24 10:15:10;;;;;;;18.63;12.33;;;7.00;99.90;;;;;;5024280;28;20238;-67
2021/11/24 10:17:37;;;;;;;20.03;12.53;;;7.00;99.90;;;;;;5017076;28;20215;-68
2021/11/24 10:20:07;;;;;;;19.00;12.13;;;7.00;99.90;;;;;;5018094;28;20234;-68
2021/11/24 10:22:35;;;;;;;17.80;11.53;;;7.00;99.90;;;;;;5026619;28;20222;-67
2021/11/24 10:25:10;;;;;;;17.43;11.23;;;7.10;99.90;;;;;;5014048;28;20212;-67
2021/11/24 10:27:40;;;;;;;18.37;11.43;;;7.10;99.90;;;;;;5017221;28;20709;-68
2021/11/24 10:30:09;;;;;;;19.77;12.33;;;6.30;99.90;;;;;;5022571;28;20207;-68
2021/11/24 10:32:37;;;;;;;17.73;12.03;;;7.10;99.90;;;;;;5022150;28;20238;-68
2021/11/24 10:35:05;;;;;;;16.87;11.53;;;7.10;99.90;;;;;;5022463;28;20207;-68
2021/11/24 10:37:32;;;;;;;17.03;11.53;;;7.10;99.90;;;;;;5018272;28;20290;-68
2021/11/24 10:40:05;;;;;;;17.87;11.53;;;7.10;99.90;;;;;;5016208;28;20302;-68
2021/11/24 10:42:34;;;;;;;19.40;12.07;;;7.10;99.90;;;;;;5015739;28;20271;-68
2021/11/24 10:45:08;;;;;;;20.23;13.43;;;7.10;99.90;;;;;;5023033;28;20254;-68
2021/11/24 10:47:48;;;;;;;17.20;11.83;;;7.10;99.90;;;;;;5020353;28;20706;-68
2021/11/24 10:50:19;;;;;;;19.23;11.90;;;7.20;99.90;;;;;;5026054;28;20276;-68
2021/11/24 10:52:47;;;;;;;19.50;11.60;;;7.20;99.90;;;;;;5018235;28;20781;-68
2021/11/24 10:55:18;;;;;;;18.50;11.60;;;7.10;99.90;;;;;;5025945;28;20627;-67
2021/11/24 10:57:58;;;;;;;18.63;11.80;;;7.10;99.90;;;;;;5023443;28;20226;-67
2021/11/24 11:00:33;;;;;;;18.53;12.10;;;7.20;99.90;;;;;;5012394;28;20286;-66
2021/11/24 11:03:00;;;;;;;17.30;11.53;;;7.20;99.90;;;;;;5022689;28;20218;-68
2021/11/24 11:05:28;;;;;;;17.40;10.73;;;7.20;99.90;;;;;;5015498;28;20231;-68
2021/11/24 11:08:02;;;;;;;16.97;11.23;;;7.20;99.90;;;;;;5016309;28;20203;-69
2021/11/24 11:10:32;;;;;;;16.50;11.07;;;7.20;99.90;;;;;;5023363;28;20207;-69
2021/11/24 11:13:02;;;;;;;15.63;11.13;;;7.10;99.90;;;;;;5016074;28;20239;-68
2021/11/24 11:15:32;;;;;;;19.13;10.70;;;7.10;99.90;;;;;;5018944;28;20203;-68
2021/11/24 11:18:03;;;;;;;15.70;10.60;;;7.10;99.90;;;;;;5027267;28;20250;-69
2021/11/24 11:20:33;;;;;;;16.87;11.33;;;7.20;99.90;;;;;;5016354;28;20298;-69
2021/11/24 11:23:13;;;;;;;19.80;11.57;;;7.10;99.90;;;;;;5015792;28;20292;-68
2021/11/24 11:25:44;;;;;;;17.00;10.67;;;7.10;99.90;;;;;;5017614;28;20199;-68
2021/11/24 11:28:11;;;;;;;17.40;10.83;;;7.10;99.90;;;;;;5022465;28;20238;-68
2021/11/24 11:30:43;;;;;;;17.60;11.87;;;6.60;99.90;;;;;;5026618;28;20241;-68
2021/11/24 11:33:13;;;;;;;17.37;12.10;;;7.10;99.90;;;;;;5025953;28;20737;-67
2021/11/24 11:35:40;;;;;;;17.50;11.90;;;7.10;99.90;;;;;;5021308;28;20643;-69
2021/11/24 11:38:08;;;;;;;20.60;11.57;;;7.10;99.90;;;;;;5017353;28;20661;-68
2021/11/24 11:40:36;;;;;;;17.83;11.40;;;7.10;99.90;;;;;;5025139;28;20246;-69
2021/11/24 11:43:07;;;;;;;17.07;11.33;;;7.10;99.90;;;;;;5012572;28;20228;-70
2021/11/24 11:45:35;;;;;;;16.77;11.17;;;7.10;99.90;;;;;;5013776;28;20576;-69
2021/11/24 11:48:04;;;;;;;14.50;10.63;;;7.20;99.90;;;;;;5016790;28;20212;-69
2021/11/24 11:50:57;;;;;;;16.90;10.57;;;7.20;99.90;;;;;;5013951;28;20245;-69
2021/11/24 11:53:27;;;;;;;17.73;11.03;;;7.20;99.90;;;;;;5031551;28;20629;-68
2021/11/24 11:56:16;;;;;;;15.10;10.87;;;7.20;99.90;;;;;;5023153;28;20282;-68
2021/11/24 11:59:07;;;;;;;18.53;11.60;;;7.30;99.90;;;;;;5025990;28;20701;-68
2021/11/24 12:01:36;;;;;;;16.67;11.10;;;7.30;99.90;;;;;;5023501;28;20238;-68
2021/11/24 12:04:07;;;;;;;16.90;11.17;;;7.40;99.90;;;;;;5026662;28;20297;-69
2021/11/24 12:06:35;;;;;;;15.13;10.57;;;7.40;99.90;;;;;;5024360;28;20233;-69
2021/11/24 12:09:25;;;;;;;16.23;10.40;;;7.40;99.90;;;;;;5020860;28;20269;-69
2021/11/24 12:12:21;;;;;;;15.10;10.60;;;7.40;99.90;;;;;;5019107;28;20585;-69
2021/11/24 12:15:27;;;;;;;16.07;11.50;;;7.50;99.90;;;;;;5024996;28;20272;-69
2021/11/24 12:17:56;;;;;;;14.97;11.00;;;7.50;99.90;;;;;;5021317;28;20703;-69
2021/11/24 12:20:40;;;;;;;15.20;10.83;;;7.50;99.90;;;;;;5023664;28;20214;-69
2021/11/24 12:23:13;;;;;;;17.07;10.93;;;7.50;99.90;;;;;;5021922;28;20680;-70
2021/11/24 12:25:42;;;;;;;15.60;10.90;;;7.50;99.90;;;;;;5023345;28;20203;-68
2021/11/24 12:28:13;;;;;;;19.27;12.00;;;7.50;99.90;;;;;;5019169;28;20207;-70
2021/11/24 12:31:04;;;;;;;16.47;11.63;;;7.50;99.90;;;;;;5028156;28;20199;-69
2021/11/24 12:33:35;;;;;;;15.70;11.07;;;7.60;99.90;;;;;;5021305;28;20203;-69
2021/11/24 12:36:07;;;;;;;19.13;11.60;;;7.60;99.90;;;;;;5031609;28;20214;-69
2021/11/24 12:38:41;;;;;;;15.40;10.27;;;7.60;99.90;;;;;;5028906;28;20237;-69
2021/11/24 12:41:10;;;;;;;15.63;10.53;;;7.60;99.90;;;;;;5023232;28;20202;-69
2021/11/24 12:43:39;;;;;;;15.80;11.33;;;7.50;99.90;;;;;;5023324;28;20235;-70